Indianapolis, Indiana
Traffic Map
Current Weather Conditions
Indianapolis, Indiana
Clear
Clear
45°
Feels Like: 41°
Wind Chill: 41° Ceiling: Unl
Heat Index: 45° Visibility: 10mi
Dew Point: 36° Wind: 8mph
Humidity: 71% Direction: 50° (NE)
Pressure: 30.06in Gusts: 0mph
Raw Report DataKIND 280454Z 05007KT 10SM CLR 07/02 A3006 RMK AO2 SLP181 T00720022 401440017
Traffic Incident Summary
Active as of:
Severity:
Category:
InformationThere was an issue retrieving the traffic information for this location. Please try a different location or try again shortly.
Advertisements
Track Severe Weather on mobile